createdAt,value
2022-12-31T00:01:45.596Z,0.00
2022-12-31T00:04:11.912Z,0.00
2022-12-31T00:06:38.298Z,0.20
2022-12-31T00:09:06.431Z,0.00
2022-12-31T00:11:33.666Z,0.08
2022-12-31T00:14:00.182Z,0.17
2022-12-31T00:16:35.834Z,0.00
2022-12-31T00:19:02.562Z,0.10
2022-12-31T00:21:29.770Z,0.10
2022-12-31T00:23:57.595Z,0.00
2022-12-31T00:26:27.411Z,0.10
2022-12-31T00:28:54.515Z,0.10
2022-12-31T00:31:25.174Z,0.03
2022-12-31T00:33:51.505Z,0.00
2022-12-31T00:36:22.147Z,0.05
2022-12-31T00:38:49.178Z,0.00
2022-12-31T00:41:16.028Z,0.00
2022-12-31T00:43:42.715Z,0.40
2022-12-31T00:46:09.772Z,0.13
2022-12-31T00:48:36.390Z,0.00
2022-12-31T00:51:04.415Z,0.00
2022-12-31T00:53:31.765Z,0.00
2022-12-31T00:56:02.163Z,0.43
2022-12-31T00:58:28.570Z,0.17
2022-12-31T01:00:55.016Z,0.03
2022-12-31T01:03:21.336Z,0.25
2022-12-31T01:05:47.623Z,0.10
2022-12-31T01:08:13.876Z,0.17
2022-12-31T01:10:58.795Z,0.05
2022-12-31T01:13:25.110Z,0.00
2022-12-31T01:15:51.418Z,0.10
2022-12-31T01:18:17.715Z,0.03
2022-12-31T01:20:44.472Z,0.00
2022-12-31T01:23:11.245Z,0.08
2022-12-31T01:25:39.071Z,0.10
2022-12-31T01:28:06.113Z,0.10
2022-12-31T01:30:32.476Z,0.10
2022-12-31T01:32:59.097Z,0.10
2022-12-31T01:35:25.516Z,0.08
2022-12-31T01:37:51.872Z,0.00
2022-12-31T01:40:18.540Z,0.20
2022-12-31T01:42:44.872Z,0.10
2022-12-31T01:45:12.465Z,0.00
2022-12-31T01:47:42.867Z,0.10
2022-12-31T01:50:20.736Z,0.10
2022-12-31T01:53:06.617Z,0.10
2022-12-31T01:55:46.122Z,0.10
2022-12-31T01:58:18.566Z,0.00
2022-12-31T02:00:45.247Z,0.15
2022-12-31T02:03:11.681Z,0.00
2022-12-31T02:05:45.162Z,0.13
2022-12-31T02:08:12.027Z,0.20
2022-12-31T02:10:38.305Z,0.00
2022-12-31T02:13:04.738Z,0.10
2022-12-31T02:15:54.452Z,0.22
2022-12-31T02:18:34.827Z,0.10
2022-12-31T02:21:20.092Z,0.10
2022-12-31T02:23:49.216Z,0.25
2022-12-31T02:26:27.983Z,0.10
2022-12-31T02:29:19.323Z,0.10
2022-12-31T02:31:49.112Z,0.10
2022-12-31T02:34:27.380Z,0.10
2022-12-31T02:36:54.843Z,0.00
2022-12-31T02:39:21.499Z,0.00
2022-12-31T02:41:51.573Z,0.00
2022-12-31T02:44:25.469Z,0.00
2022-12-31T02:47:01.233Z,0.10
2022-12-31T02:49:28.678Z,0.10
2022-12-31T02:52:05.713Z,0.13
2022-12-31T02:54:48.787Z,0.00
2022-12-31T02:57:17.639Z,0.00
2022-12-31T03:00:02.470Z,0.17
2022-12-31T03:02:29.962Z,0.00
2022-12-31T03:04:57.170Z,0.05
2022-12-31T03:07:27.706Z,0.10
2022-12-31T03:09:54.223Z,0.15
2022-12-31T03:12:41.005Z,0.05
2022-12-31T03:15:20.188Z,0.00
2022-12-31T03:17:54.020Z,0.10
2022-12-31T03:20:41.340Z,0.20
2022-12-31T03:23:09.169Z,0.10
2022-12-31T03:25:35.827Z,0.10
2022-12-31T03:28:03.257Z,0.20
2022-12-31T03:30:29.908Z,0.20
2022-12-31T03:32:58.595Z,0.08
2022-12-31T03:35:25.977Z,0.08
2022-12-31T03:37:52.630Z,0.08
2022-12-31T03:40:20.321Z,0.10
2022-12-31T03:42:46.670Z,0.25
2022-12-31T03:45:13.613Z,0.20
2022-12-31T03:47:42.702Z,0.10
2022-12-31T03:50:14.536Z,0.40
2022-12-31T03:52:43.725Z,0.00
2022-12-31T03:55:11.262Z,0.15
2022-12-31T03:57:37.961Z,0.50
2022-12-31T04:00:05.592Z,0.30
2022-12-31T04:02:32.083Z,0.10
2022-12-31T04:04:58.628Z,0.10
2022-12-31T04:07:25.002Z,0.10
2022-12-31T04:09:51.752Z,0.20
2022-12-31T04:12:17.979Z,0.10
2022-12-31T04:14:44.299Z,0.10
2022-12-31T04:17:10.597Z,0.10
2022-12-31T04:19:37.596Z,0.10
2022-12-31T04:22:04.337Z,0.00
2022-12-31T04:24:30.710Z,0.17
2022-12-31T04:26:59.658Z,0.10
2022-12-31T04:29:29.970Z,0.00
2022-12-31T04:31:56.470Z,0.00
2022-12-31T04:34:22.815Z,0.00
2022-12-31T04:36:49.153Z,0.00
2022-12-31T04:39:15.403Z,0.10
2022-12-31T04:41:41.713Z,0.20
2022-12-31T04:44:07.961Z,0.00
2022-12-31T04:46:34.505Z,0.00
2022-12-31T04:49:01.131Z,0.00
2022-12-31T04:51:27.987Z,0.00
2022-12-31T04:53:54.729Z,0.10
2022-12-31T04:56:21.083Z,0.00
2022-12-31T04:58:47.500Z,0.00
2022-12-31T05:01:14.474Z,0.00
2022-12-31T05:03:41.013Z,0.00
2022-12-31T05:06:11.132Z,0.00
2022-12-31T05:08:37.719Z,0.10
2022-12-31T05:11:04.168Z,0.00
2022-12-31T05:13:33.401Z,0.32
2022-12-31T05:16:01.443Z,0.30
2022-12-31T05:18:28.188Z,0.00
2022-12-31T05:20:54.618Z,0.30
2022-12-31T05:23:21.228Z,0.10
2022-12-31T05:25:48.257Z,0.10
2022-12-31T05:28:14.893Z,0.00
2022-12-31T05:30:41.499Z,0.00
2022-12-31T05:33:08.202Z,0.00
2022-12-31T05:35:37.605Z,0.00
2022-12-31T05:38:04.006Z,0.00
2022-12-31T05:40:30.265Z,0.00
2022-12-31T05:42:56.569Z,0.00
2022-12-31T05:45:30.132Z,0.00
2022-12-31T05:47:57.155Z,0.00
2022-12-31T05:50:24.419Z,0.00
2022-12-31T05:52:50.668Z,0.00
2022-12-31T05:55:21.611Z,0.00
2022-12-31T05:57:47.859Z,0.00
2022-12-31T06:00:14.751Z,0.00
2022-12-31T06:02:41.055Z,0.00
2022-12-31T06:07:49.295Z,0.00
2022-12-31T06:10:15.629Z,0.00
2022-12-31T06:12:41.937Z,0.00
2022-12-31T06:15:08.862Z,0.00
2022-12-31T06:17:35.200Z,0.00
2022-12-31T06:20:01.914Z,0.10
2022-12-31T06:22:30.217Z,0.00
2022-12-31T06:24:58.605Z,0.00
2022-12-31T06:27:24.889Z,0.00
2022-12-31T06:29:51.451Z,0.00
2022-12-31T06:32:17.711Z,0.00
2022-12-31T06:34:44.011Z,0.00
2022-12-31T06:37:10.361Z,0.00
2022-12-31T06:39:36.649Z,0.00
2022-12-31T06:42:04.761Z,0.00
2022-12-31T06:44:31.296Z,0.08
2022-12-31T06:46:58.029Z,0.00
2022-12-31T06:49:24.322Z,0.10
2022-12-31T06:51:50.611Z,0.00
2022-12-31T06:54:16.875Z,0.00
2022-12-31T06:56:44.738Z,0.00
2022-12-31T06:59:30.090Z,0.17
2022-12-31T07:02:02.543Z,0.10
2022-12-31T07:04:35.002Z,0.00
2022-12-31T07:07:04.162Z,0.00
2022-12-31T07:09:51.114Z,0.00
2022-12-31T07:12:30.650Z,0.10
2022-12-31T07:15:19.689Z,0.00
2022-12-31T07:18:02.064Z,0.00
2022-12-31T07:22:56.262Z,0.00
2022-12-31T07:25:23.474Z,0.00
2022-12-31T07:27:59.088Z,0.00
2022-12-31T07:30:32.716Z,0.00
2022-12-31T07:33:05.174Z,0.10
2022-12-31T07:35:50.200Z,0.00
2022-12-31T07:38:31.614Z,0.00
2022-12-31T07:41:09.345Z,0.00
2022-12-31T07:43:55.856Z,0.00
2022-12-31T07:46:26.614Z,0.00
2022-12-31T07:48:53.089Z,0.00
2022-12-31T07:51:19.553Z,0.00
2022-12-31T07:53:45.904Z,0.00
2022-12-31T07:56:12.978Z,0.00
2022-12-31T07:58:45.086Z,0.10
2022-12-31T08:04:00.066Z,0.00
2022-12-31T08:06:32.444Z,0.00
2022-12-31T08:09:02.979Z,0.00
2022-12-31T08:11:29.620Z,0.03
2022-12-31T08:13:56.897Z,0.00
2022-12-31T08:16:23.336Z,0.00
2022-12-31T08:18:49.852Z,0.00
2022-12-31T08:21:16.090Z,0.00
2022-12-31T08:23:49.671Z,0.10
2022-12-31T08:26:36.827Z,0.10
2022-12-31T08:29:22.042Z,0.00
2022-12-31T08:31:57.643Z,0.05
2022-12-31T08:34:26.990Z,0.00
2022-12-31T08:36:56.767Z,0.10
2022-12-31T08:39:28.496Z,0.08
2022-12-31T08:42:00.800Z,0.00
2022-12-31T08:44:31.224Z,0.00
2022-12-31T08:47:05.881Z,0.10
2022-12-31T08:49:33.403Z,0.10
2022-12-31T08:52:01.324Z,0.00
2022-12-31T08:54:27.796Z,0.00
2022-12-31T08:57:06.280Z,0.00
2022-12-31T08:59:40.222Z,0.00
2022-12-31T09:02:32.683Z,0.00
2022-12-31T09:07:36.591Z,0.00
2022-12-31T09:10:08.627Z,0.10
2022-12-31T09:12:41.865Z,0.00
2022-12-31T09:15:08.307Z,0.00
2022-12-31T09:17:44.121Z,0.00
2022-12-31T09:20:43.036Z,0.00
2022-12-31T09:23:10.409Z,0.00
2022-12-31T09:25:41.273Z,0.00
2022-12-31T09:28:22.550Z,0.00
2022-12-31T09:30:53.850Z,0.00
2022-12-31T09:33:40.260Z,0.07
2022-12-31T09:36:08.137Z,0.10
2022-12-31T09:38:34.447Z,0.05
2022-12-31T09:41:23.625Z,0.10
2022-12-31T09:44:01.153Z,0.00
2022-12-31T09:46:27.832Z,0.10
2022-12-31T09:49:16.854Z,0.10
2022-12-31T09:51:50.031Z,0.10
2022-12-31T09:54:23.262Z,0.00
2022-12-31T09:57:04.628Z,0.10
2022-12-31T09:59:40.603Z,0.10
2022-12-31T10:02:21.628Z,0.47
2022-12-31T10:05:06.960Z,0.10
2022-12-31T10:07:39.060Z,0.20
2022-12-31T10:12:55.112Z,0.05
2022-12-31T10:15:39.957Z,0.00
2022-12-31T10:18:18.606Z,0.00
2022-12-31T10:20:51.554Z,0.10
2022-12-31T10:23:20.620Z,0.08
2022-12-31T10:26:05.677Z,0.00
2022-12-31T10:28:47.356Z,0.30
2022-12-31T10:31:29.048Z,0.20
2022-12-31T10:34:06.956Z,0.05
2022-12-31T10:36:42.356Z,0.08
2022-12-31T10:39:24.628Z,0.10
2022-12-31T10:41:51.112Z,0.10
2022-12-31T10:44:36.005Z,0.17
2022-12-31T10:47:32.539Z,0.00
2022-12-31T10:50:17.519Z,0.10
2022-12-31T10:52:55.923Z,0.20
2022-12-31T10:55:25.226Z,0.05
2022-12-31T10:58:06.547Z,0.00
2022-12-31T11:00:46.628Z,0.10
2022-12-31T11:03:29.739Z,0.10
2022-12-31T11:05:58.878Z,0.20
2022-12-31T11:08:28.342Z,0.10
2022-12-31T11:11:18.077Z,0.10
2022-12-31T11:13:46.620Z,0.10
2022-12-31T11:16:21.976Z,0.10
2022-12-31T11:18:54.183Z,0.00
2022-12-31T11:21:29.752Z,0.30
2022-12-31T11:24:15.144Z,0.10
2022-12-31T11:27:01.196Z,0.10
2022-12-31T11:29:46.124Z,0.10
2022-12-31T11:32:31.259Z,0.10
2022-12-31T11:35:12.783Z,0.10
2022-12-31T11:37:47.403Z,0.20
2022-12-31T11:40:24.679Z,0.03
2022-12-31T11:43:09.718Z,0.20
2022-12-31T11:46:02.644Z,0.25
2022-12-31T11:48:36.367Z,0.20
2022-12-31T11:51:21.448Z,0.10
2022-12-31T11:54:15.183Z,0.10
2022-12-31T11:56:44.042Z,0.17
2022-12-31T11:59:18.582Z,0.10
2022-12-31T12:01:55.543Z,0.20
2022-12-31T12:04:21.851Z,0.28
2022-12-31T12:06:48.226Z,0.20
2022-12-31T12:09:16.887Z,0.30
2022-12-31T12:11:43.259Z,0.20
2022-12-31T12:14:20.557Z,0.20
2022-12-31T12:16:46.976Z,0.15
2022-12-31T12:19:19.168Z,0.20
2022-12-31T12:21:46.486Z,0.30
2022-12-31T12:24:19.660Z,0.20
2022-12-31T12:26:46.304Z,0.00
2022-12-31T12:29:25.369Z,0.10
2022-12-31T12:32:01.187Z,0.10
2022-12-31T12:34:31.424Z,0.10
2022-12-31T12:36:58.147Z,0.10
2022-12-31T12:39:26.653Z,0.10
2022-12-31T12:41:59.476Z,0.10
2022-12-31T12:44:25.723Z,0.05
2022-12-31T12:46:52.957Z,0.00
2022-12-31T12:49:39.192Z,0.10
2022-12-31T12:52:05.476Z,0.08
2022-12-31T12:54:58.698Z,0.10
2022-12-31T12:57:29.371Z,1.00
2022-12-31T13:00:14.142Z,0.20
2022-12-31T13:02:43.480Z,0.10
2022-12-31T13:05:18.148Z,0.20
2022-12-31T13:07:59.675Z,0.20
2022-12-31T13:10:44.417Z,0.20
2022-12-31T13:13:36.934Z,0.13
2022-12-31T13:16:06.437Z,0.03
2022-12-31T13:18:52.885Z,0.10
2022-12-31T13:21:25.464Z,0.10
2022-12-31T13:23:55.197Z,0.10
2022-12-31T13:26:27.835Z,0.10
2022-12-31T13:28:56.155Z,0.17
2022-12-31T13:31:26.388Z,0.10
2022-12-31T13:33:58.157Z,0.10
2022-12-31T13:36:26.455Z,0.10
2022-12-31T13:38:54.231Z,0.20
2022-12-31T13:41:31.501Z,0.20
2022-12-31T13:44:13.858Z,0.20
2022-12-31T13:46:56.436Z,0.22
2022-12-31T13:49:33.548Z,0.17
2022-12-31T13:52:05.146Z,0.10
2022-12-31T13:54:31.453Z,0.10
2022-12-31T13:57:01.395Z,0.20
2022-12-31T13:59:39.525Z,0.20
2022-12-31T14:02:16.074Z,0.10
2022-12-31T14:04:46.191Z,0.20
2022-12-31T14:07:16.261Z,0.10
2022-12-31T14:09:42.619Z,0.10
2022-12-31T14:12:21.161Z,0.10
2022-12-31T14:14:56.577Z,0.10
2022-12-31T14:17:23.016Z,0.10
2022-12-31T14:19:58.007Z,0.10
2022-12-31T14:22:24.214Z,0.10
2022-12-31T14:24:51.417Z,0.10
2022-12-31T14:27:20.399Z,0.20
2022-12-31T14:30:06.215Z,0.10
2022-12-31T14:32:51.358Z,0.00
2022-12-31T14:35:29.834Z,0.10
2022-12-31T14:38:00.410Z,0.10
2022-12-31T14:40:45.397Z,0.13
2022-12-31T14:43:35.123Z,0.10
2022-12-31T14:46:14.292Z,0.10
2022-12-31T14:48:43.527Z,0.10
2022-12-31T14:51:10.407Z,0.20
2022-12-31T14:53:36.741Z,0.20
2022-12-31T14:56:07.467Z,0.22
2022-12-31T14:58:37.850Z,0.20
2022-12-31T15:01:19.212Z,0.20
2022-12-31T15:03:46.381Z,0.35
2022-12-31T15:06:27.945Z,0.20
2022-12-31T15:08:54.264Z,0.67
2022-12-31T15:11:35.395Z,0.20
2022-12-31T15:14:07.726Z,0.17
2022-12-31T15:16:50.234Z,0.40
2022-12-31T15:19:19.298Z,0.20
2022-12-31T15:21:54.836Z,0.30
2022-12-31T15:24:22.426Z,0.40
2022-12-31T15:26:56.172Z,0.30
2022-12-31T15:29:27.357Z,0.17
2022-12-31T15:31:54.178Z,0.30
2022-12-31T15:34:26.068Z,0.20
2022-12-31T15:36:57.104Z,0.30
2022-12-31T15:39:36.102Z,0.30
2022-12-31T15:44:50.583Z,0.25
2022-12-31T15:47:22.754Z,0.28
2022-12-31T15:49:49.548Z,0.60
2022-12-31T15:52:22.127Z,0.30
2022-12-31T15:54:50.118Z,0.50
2022-12-31T15:57:19.390Z,0.40
2022-12-31T15:59:45.997Z,0.30
2022-12-31T16:02:23.167Z,0.45
2022-12-31T16:04:50.022Z,0.25
2022-12-31T16:07:17.197Z,0.22
2022-12-31T16:09:53.931Z,0.20
2022-12-31T16:12:26.516Z,0.63
2022-12-31T16:14:58.605Z,0.30
2022-12-31T16:17:31.926Z,0.30
2022-12-31T16:19:59.577Z,0.20
2022-12-31T16:22:25.836Z,0.40
2022-12-31T16:27:49.420Z,0.30
2022-12-31T16:30:36.413Z,0.45
2022-12-31T16:33:06.747Z,0.40
2022-12-31T16:35:34.066Z,0.38
2022-12-31T16:38:01.141Z,0.38
2022-12-31T16:40:27.550Z,0.50
2022-12-31T16:42:53.898Z,0.30
2022-12-31T16:45:32.610Z,0.20
2022-12-31T16:48:01.838Z,0.20
2022-12-31T16:50:29.140Z,0.30
2022-12-31T16:52:58.959Z,0.25
2022-12-31T16:55:26.472Z,0.05
2022-12-31T16:58:07.750Z,0.20
2022-12-31T17:00:34.816Z,0.20
2022-12-31T17:03:14.020Z,0.60
2022-12-31T17:05:59.067Z,0.17
2022-12-31T17:08:27.590Z,0.30
2022-12-31T17:10:54.015Z,0.35
2022-12-31T17:13:29.066Z,0.30
2022-12-31T17:15:57.091Z,0.20
2022-12-31T17:18:25.461Z,0.32
2022-12-31T17:20:52.559Z,0.45
2022-12-31T17:23:21.633Z,0.30
2022-12-31T17:25:48.006Z,0.20
2022-12-31T17:28:24.718Z,0.13
2022-12-31T17:30:51.512Z,0.25
2022-12-31T17:33:17.804Z,0.30
2022-12-31T17:35:44.872Z,0.30
2022-12-31T17:38:23.437Z,0.13
2022-12-31T17:41:05.349Z,0.10
2022-12-31T17:43:35.758Z,0.10
2022-12-31T17:46:02.484Z,0.28
2022-12-31T17:48:29.269Z,0.30
2022-12-31T17:50:57.293Z,0.17
2022-12-31T17:53:23.928Z,0.30
2022-12-31T17:55:51.595Z,0.28
2022-12-31T17:58:29.809Z,0.28
2022-12-31T18:00:57.049Z,0.10
2022-12-31T18:03:23.502Z,0.10
2022-12-31T18:05:49.751Z,0.38
2022-12-31T18:08:16.043Z,0.25
2022-12-31T18:10:42.835Z,0.17
2022-12-31T18:13:14.586Z,0.22
2022-12-31T18:15:40.894Z,0.20
2022-12-31T18:18:33.567Z,0.20
2022-12-31T18:21:01.164Z,0.20
2022-12-31T18:23:30.147Z,0.17
2022-12-31T18:25:56.960Z,0.22
2022-12-31T18:28:23.417Z,0.20
2022-12-31T18:30:49.919Z,0.30
2022-12-31T18:33:22.417Z,0.20
2022-12-31T18:36:08.141Z,0.30
2022-12-31T18:38:35.712Z,0.30
2022-12-31T18:41:02.026Z,0.65
2022-12-31T18:43:28.292Z,0.22
2022-12-31T18:45:54.662Z,0.22
2022-12-31T18:48:21.087Z,0.30
2022-12-31T18:50:47.866Z,0.30
2022-12-31T18:53:19.065Z,0.20
2022-12-31T18:55:47.975Z,0.27
2022-12-31T18:58:14.659Z,0.47
2022-12-31T19:00:43.529Z,0.10
2022-12-31T19:03:13.734Z,0.20
2022-12-31T19:05:40.086Z,0.30
2022-12-31T19:08:06.483Z,0.30
2022-12-31T19:10:33.701Z,0.60
2022-12-31T19:13:00.002Z,0.20
2022-12-31T19:15:32.949Z,0.32
2022-12-31T19:18:00.249Z,0.20
2022-12-31T19:20:26.897Z,0.30
2022-12-31T19:22:54.300Z,0.40
2022-12-31T19:25:22.357Z,0.20
2022-12-31T19:27:49.167Z,0.30
2022-12-31T19:30:16.652Z,0.20
2022-12-31T19:32:42.975Z,0.50
2022-12-31T19:35:11.473Z,0.20
2022-12-31T19:37:37.709Z,0.30
2022-12-31T19:40:04.212Z,0.20
2022-12-31T19:42:30.445Z,0.20
2022-12-31T19:44:56.724Z,0.30
2022-12-31T19:47:23.035Z,0.30
2022-12-31T19:49:49.284Z,0.50
2022-12-31T19:52:15.590Z,0.43
2022-12-31T19:54:41.846Z,0.45
2022-12-31T19:57:08.099Z,0.30
2022-12-31T19:59:34.459Z,0.20
2022-12-31T20:02:00.909Z,0.30
2022-12-31T20:04:27.475Z,0.28
2022-12-31T20:06:53.778Z,0.40
2022-12-31T20:09:20.148Z,0.32
2022-12-31T20:11:46.487Z,0.43
2022-12-31T20:14:12.892Z,0.20
2022-12-31T20:16:40.292Z,0.50
2022-12-31T20:19:06.602Z,0.30
2022-12-31T20:21:32.933Z,0.40
2022-12-31T20:23:59.310Z,0.15
2022-12-31T20:26:26.548Z,0.40
2022-12-31T20:28:53.364Z,0.28
2022-12-31T20:31:21.205Z,0.40
2022-12-31T20:33:47.687Z,0.40
2022-12-31T20:36:14.852Z,0.20
2022-12-31T20:38:42.533Z,0.30
2022-12-31T20:41:10.162Z,0.20
2022-12-31T20:43:36.830Z,0.30
2022-12-31T20:46:29.397Z,0.40
2022-12-31T20:48:57.267Z,0.40
2022-12-31T20:51:24.078Z,0.40
2022-12-31T20:53:51.995Z,0.20
2022-12-31T20:56:18.728Z,0.63
2022-12-31T20:58:45.050Z,0.30
2022-12-31T21:01:11.621Z,0.40
2022-12-31T21:04:04.712Z,0.60
2022-12-31T21:06:25.475Z,0.30
2022-12-31T21:08:51.734Z,0.40
2022-12-31T21:11:36.837Z,0.30
2022-12-31T21:14:03.122Z,0.40
2022-12-31T21:16:29.477Z,0.40
2022-12-31T21:18:55.778Z,0.47
2022-12-31T21:21:22.087Z,0.65
2022-12-31T21:23:50.707Z,0.38
2022-12-31T21:26:16.971Z,0.90
2022-12-31T21:28:44.630Z,0.20
2022-12-31T21:31:12.031Z,0.20
2022-12-31T21:33:38.630Z,0.35
2022-12-31T21:36:06.507Z,0.50
2022-12-31T21:38:35.484Z,0.30
2022-12-31T21:41:02.650Z,0.30
2022-12-31T21:43:28.904Z,0.30
2022-12-31T21:46:02.409Z,0.30
2022-12-31T21:48:28.871Z,0.40
2022-12-31T21:51:04.273Z,0.30
2022-12-31T21:53:36.631Z,0.20
2022-12-31T21:56:09.594Z,0.30
2022-12-31T21:58:40.414Z,0.30
2022-12-31T22:01:25.596Z,0.30
2022-12-31T22:03:52.320Z,0.30
2022-12-31T22:06:20.666Z,0.30
2022-12-31T22:08:48.918Z,0.40
2022-12-31T22:11:15.459Z,0.30
2022-12-31T22:13:44.324Z,0.22
2022-12-31T22:16:12.553Z,0.30
2022-12-31T22:18:39.325Z,0.32
2022-12-31T22:21:13.765Z,0.40
2022-12-31T22:23:42.464Z,0.35
2022-12-31T22:26:10.539Z,0.50
2022-12-31T22:28:39.741Z,0.57
2022-12-31T22:31:07.054Z,0.50
2022-12-31T22:33:33.345Z,0.40
2022-12-31T22:36:04.958Z,0.30
2022-12-31T22:38:31.974Z,0.50
2022-12-31T22:41:05.546Z,0.45
2022-12-31T22:43:33.062Z,0.30
2022-12-31T22:46:04.968Z,0.20
2022-12-31T22:48:31.219Z,0.20
2022-12-31T22:50:57.598Z,0.22
2022-12-31T22:53:24.033Z,0.55
2022-12-31T22:55:50.480Z,0.30
2022-12-31T22:58:19.715Z,0.40
2022-12-31T23:00:46.522Z,0.30
2022-12-31T23:03:12.960Z,0.30
2022-12-31T23:05:39.356Z,0.40
2022-12-31T23:08:15.595Z,0.30
2022-12-31T23:11:08.878Z,0.40
2022-12-31T23:13:58.662Z,0.55
2022-12-31T23:16:44.443Z,0.30
2022-12-31T23:19:29.702Z,0.40
2022-12-31T23:22:15.057Z,0.30
2022-12-31T23:24:41.503Z,0.47
2022-12-31T23:27:08.187Z,0.40
2022-12-31T23:29:41.957Z,0.73
2022-12-31T23:32:12.192Z,0.57
2022-12-31T23:34:38.472Z,0.40
2022-12-31T23:37:04.779Z,0.43
2022-12-31T23:39:31.100Z,0.50
2022-12-31T23:42:00.559Z,0.30
2022-12-31T23:44:27.152Z,0.45
2022-12-31T23:46:53.528Z,0.30
2022-12-31T23:49:20.064Z,0.40
2022-12-31T23:51:46.362Z,0.40
2022-12-31T23:54:15.930Z,0.35
2022-12-31T23:56:42.296Z,0.55
2022-12-31T23:59:10.503Z,0.50
